Weather at Edinburgh Airport

Public forecast

Using degrees Celsius for public forecast. Weather courtesy of forecast.io.

Current aviation weather report (METAR) for Edinburgh Airport

Report is more than 6 hours old.

2022/11/14 15:20 (retrieved 2 years ago)

EGPH 141520Z VRB02KT CAVOK 13/10 Q1003

Aviation forecast (TAF) for Edinburgh Airport

Forecast is more than 12 hours old.

2023/02/22 18:00 (retrieved 1 year ago)

TAF EGPH 221653Z 2218/2318 33005KT 9999 FEW040 PROB30 2303/2309 8000 BECMG 2308/2311 27012KT